Time;durP1;ratioP1;P1;durP2;ratioP2;P2;SDS_P1;SDS_P2;PMS_P1;PMS_P2;Temp;Humidity;BMP_temperature;BMP_pressure;BME280_temperature;BME280_humidity;BME280_pressure;Samples;Min_cycle;Max_cycle;Signal;HPM_P1;HPM_P2
2023/06/18 00:01:23;;;;;;;8.13;7.33;;;;;;;;;;5051489;28;20227;-54
2023/06/18 00:03:49;;;;;;;8.73;7.80;;;;;;;;;;5051528;28;20279;-54
2023/06/18 00:06:15;;;;;;;7.97;7.17;;;;;;;;;;5053170;28;20206;-55
2023/06/18 00:08:41;;;;;;;8.93;8.03;;;;;;;;;;5053124;28;20198;-54
2023/06/18 00:11:07;;;;;;;7.97;7.17;;;;;;;;;;5053462;28;20213;-53
2023/06/18 00:13:34;;;;;;;8.43;7.53;;;;;;;;;;5053151;28;20192;-55
2023/06/18 00:16:00;;;;;;;8.37;7.40;;;;;;;;;;5053243;28;20207;-55
2023/06/18 00:18:27;;;;;;;8.57;7.67;;;;;;;;;;5052984;28;20208;-54
2023/06/18 00:20:52;;;;;;;10.83;8.73;;;;;;;;;;5052955;28;20210;-55
2023/06/18 00:23:18;;;;;;;10.23;9.17;;;;;;;;;;5053152;28;20199;-54
2023/06/18 00:25:44;;;;;;;9.70;8.70;;;;;;;;;;5052689;28;20265;-55
2023/06/18 00:28:10;;;;;;;10.43;9.43;;;;;;;;;;5052849;28;20199;-55
2023/06/18 00:30:38;;;;;;;9.90;8.83;;;;;;;;;;5052992;28;20703;-55
2023/06/18 00:33:05;;;;;;;10.30;9.20;;;;;;;;;;5052913;28;20218;-55
2023/06/18 00:35:32;;;;;;;12.13;9.40;;;;;;;;;;5052720;28;20226;-54
2023/06/18 00:37:59;;;;;;;12.53;9.10;;;;;;;;;;5052798;28;20202;-54
2023/06/18 00:40:25;;;;;;;10.03;9.03;;;;;;;;;;5052554;28;20204;-54
2023/06/18 00:42:52;;;;;;;10.00;9.00;;;;;;;;;;5051828;28;20234;-55
2023/06/18 00:45:18;;;;;;;9.60;8.70;;;;;;;;;;5052248;28;20204;-55
2023/06/18 00:47:46;;;;;;;10.13;8.77;;;;;;;;;;5052316;28;20195;-54
2023/06/18 00:50:15;;;;;;;9.07;8.17;;;;;;;;;;5052459;28;20286;-55
2023/06/18 00:52:44;;;;;;;8.50;7.63;;;;;;;;;;5052318;28;20202;-54
2023/06/18 00:55:10;;;;;;;8.70;7.90;;;;;;;;;;5052510;28;20213;-55
2023/06/18 00:57:37;;;;;;;9.43;8.23;;;;;;;;;;5052386;28;20230;-55
2023/06/18 01:00:09;;;;;;;10.43;8.33;;;;;;;;;;5052562;28;20218;-55
2023/06/18 01:02:35;;;;;;;8.57;7.70;;;;;;;;;;5052503;28;20235;-55
2023/06/18 01:05:09;;;;;;;9.60;7.83;;;;;;;;;;5052192;28;20248;-53
2023/06/18 01:07:39;;;;;;;9.37;8.20;;;;;;;;;;5052307;28;20203;-54
2023/06/18 01:10:05;;;;;;;9.63;8.10;;;;;;;;;;5052464;28;20254;-54
2023/06/18 01:12:32;;;;;;;8.73;7.80;;;;;;;;;;5051988;28;20188;-54
2023/06/18 01:14:58;;;;;;;8.60;7.80;;;;;;;;;;5051884;28;20753;-54
2023/06/18 01:17:29;;;;;;;8.43;7.63;;;;;;;;;;5051858;28;20216;-53
2023/06/18 01:19:58;;;;;;;9.43;7.67;;;;;;;;;;5051901;28;20202;-54
2023/06/18 01:22:37;;;;;;;11.10;8.47;;;;;;;;;;5051922;28;20675;-54
2023/06/18 01:25:05;;;;;;;8.40;7.60;;;;;;;;;;5051834;28;20238;-54
2023/06/18 01:27:33;;;;;;;9.00;7.60;;;;;;;;;;5051794;28;20208;-54
2023/06/18 01:30:00;;;;;;;8.53;7.13;;;;;;;;;;5051673;28;20242;-54
2023/06/18 01:32:27;;;;;;;8.10;7.40;;;;;;;;;;5051531;28;20659;-54
2023/06/18 01:34:55;;;;;;;8.40;7.60;;;;;;;;;;5051707;28;20255;-55
2023/06/18 01:37:30;;;;;;;8.70;7.80;;;;;;;;;;5051805;28;20199;-55
2023/06/18 01:40:01;;;;;;;8.70;7.77;;;;;;;;;;5051567;28;20196;-55
2023/06/18 01:42:30;;;;;;;8.47;7.67;;;;;;;;;;5051416;28;20319;-55
2023/06/18 01:45:03;;;;;;;9.60;7.87;;;;;;;;;;5051446;28;20215;-55
2023/06/18 01:47:30;;;;;;;9.23;7.93;;;;;;;;;;5051473;28;20205;-55
2023/06/18 01:49:58;;;;;;;9.77;8.80;;;;;;;;;;5051303;28;20210;-54
2023/06/18 01:52:25;;;;;;;9.87;8.87;;;;;;;;;;5051329;28;20193;-55
2023/06/18 01:54:52;;;;;;;11.47;9.17;;;;;;;;;;5051329;28;20666;-55
2023/06/18 01:57:19;;;;;;;8.47;7.60;;;;;;;;;;5051516;28;20204;-54
2023/06/18 01:59:45;;;;;;;9.47;8.60;;;;;;;;;;5051185;28;20303;-55
2023/06/18 02:02:15;;;;;;;9.13;8.23;;;;;;;;;;5051046;28;20323;-55
2023/06/18 02:04:44;;;;;;;10.07;7.80;;;;;;;;;;5051028;28;20219;-55
2023/06/18 02:07:10;;;;;;;9.87;8.10;;;;;;;;;;5051062;28;20192;-55
2023/06/18 02:09:36;;;;;;;9.87;8.50;;;;;;;;;;5051301;28;20681;-55
2023/06/18 02:12:02;;;;;;;10.37;8.60;;;;;;;;;;5051394;28;20291;-55
2023/06/18 02:14:30;;;;;;;10.23;8.60;;;;;;;;;;5051110;28;20200;-55
2023/06/18 02:16:57;;;;;;;10.67;9.50;;;;;;;;;;5050982;28;20208;-54
2023/06/18 02:19:23;;;;;;;11.47;10.27;;;;;;;;;;5051140;28;20663;-55
2023/06/18 02:21:49;;;;;;;10.53;9.53;;;;;;;;;;5051056;28;20580;-55
2023/06/18 02:24:16;;;;;;;10.90;9.87;;;;;;;;;;5051167;28;20243;-52
2023/06/18 02:26:42;;;;;;;10.17;9.03;;;;;;;;;;5050895;28;20200;-52
2023/06/18 02:29:08;;;;;;;10.33;8.97;;;;;;;;;;5051133;28;20257;-52
2023/06/18 02:31:36;;;;;;;10.13;9.20;;;;;;;;;;5051105;28;20246;-53
2023/06/18 02:34:02;;;;;;;9.47;8.57;;;;;;;;;;5050924;28;20196;-52
2023/06/18 02:36:28;;;;;;;9.77;8.87;;;;;;;;;;5050852;28;20196;-53
2023/06/18 02:38:55;;;;;;;9.67;8.70;;;;;;;;;;5050753;28;20671;-52
2023/06/18 02:41:21;;;;;;;10.60;8.57;;;;;;;;;;5051003;28;20204;-53
2023/06/18 02:43:50;;;;;;;9.80;8.73;;;;;;;;;;5050836;28;20295;-53
2023/06/18 02:46:16;;;;;;;8.97;8.03;;;;;;;;;;5050804;28;20309;-53
2023/06/18 02:48:43;;;;;;;8.93;8.13;;;;;;;;;;5051014;28;20188;-53
2023/06/18 02:51:10;;;;;;;9.77;8.77;;;;;;;;;;5050784;28;20204;-53
2023/06/18 02:53:36;;;;;;;8.70;7.90;;;;;;;;;;5050915;28;20207;-53
2023/06/18 02:56:03;;;;;;;12.87;8.93;;;;;;;;;;5050915;28;20238;-55
2023/06/18 02:58:29;;;;;;;10.07;9.07;;;;;;;;;;5050757;28;20197;-55
2023/06/18 03:00:55;;;;;;;9.83;8.83;;;;;;;;;;5050243;28;20647;-55
2023/06/18 03:03:21;;;;;;;9.30;8.40;;;;;;;;;;5050220;28;20619;-54
2023/06/18 03:05:48;;;;;;;10.70;9.37;;;;;;;;;;5050522;28;20220;-54
2023/06/18 03:08:14;;;;;;;9.83;8.40;;;;;;;;;;5053959;28;20196;-54
2023/06/18 03:10:41;;;;;;;9.00;8.10;;;;;;;;;;5054563;28;20196;-54
2023/06/18 03:13:07;;;;;;;9.03;8.13;;;;;;;;;;5054192;28;20536;-54
2023/06/18 03:15:33;;;;;;;12.07;9.27;;;;;;;;;;5054477;28;20211;-54
2023/06/18 03:17:59;;;;;;;9.60;8.70;;;;;;;;;;5054188;28;20254;-54
2023/06/18 03:20:25;;;;;;;9.73;8.73;;;;;;;;;;5054299;28;20197;-53
2023/06/18 03:22:52;;;;;;;9.90;9.00;;;;;;;;;;5054221;28;20251;-54
2023/06/18 03:25:20;;;;;;;10.17;9.17;;;;;;;;;;5054077;28;20236;-54
2023/06/18 03:27:46;;;;;;;9.73;8.83;;;;;;;;;;5053989;28;20200;-53
2023/06/18 03:30:12;;;;;;;11.03;9.93;;;;;;;;;;5054110;28;20553;-54
2023/06/18 03:32:38;;;;;;;10.47;9.50;;;;;;;;;;5053933;28;20283;-53
2023/06/18 03:35:04;;;;;;;10.57;9.57;;;;;;;;;;5054200;28;20192;-54
2023/06/18 03:37:31;;;;;;;10.43;9.43;;;;;;;;;;5053920;28;20254;-54
2023/06/18 03:39:58;;;;;;;10.07;8.90;;;;;;;;;;5053790;28;20196;-54
2023/06/18 03:42:24;;;;;;;11.87;9.07;;;;;;;;;;5053719;28;20691;-54
2023/06/18 03:44:50;;;;;;;10.77;9.43;;;;;;;;;;5053889;28;20199;-54
2023/06/18 03:47:16;;;;;;;10.20;8.83;;;;;;;;;;5053685;28;20196;-54
2023/06/18 03:49:42;;;;;;;11.13;9.33;;;;;;;;;;5053625;28;20219;-53
2023/06/18 03:52:08;;;;;;;10.80;9.70;;;;;;;;;;5053674;28;20681;-54
2023/06/18 03:54:35;;;;;;;11.80;10.53;;;;;;;;;;5053948;28;20207;-54
2023/06/18 03:57:02;;;;;;;10.50;9.50;;;;;;;;;;5053626;28;20265;-54
2023/06/18 03:59:28;;;;;;;10.43;9.37;;;;;;;;;;5053527;28;20211;-54
2023/06/18 04:01:54;;;;;;;10.13;9.10;;;;;;;;;;5053194;28;20239;-54
2023/06/18 04:04:20;;;;;;;11.37;10.17;;;;;;;;;;5053533;28;20208;-54
2023/06/18 04:06:46;;;;;;;10.83;9.73;;;;;;;;;;5053263;28;20199;-53
2023/06/18 04:09:12;;;;;;;10.53;9.53;;;;;;;;;;5053383;28;20567;-54
2023/06/18 04:11:39;;;;;;;12.53;9.90;;;;;;;;;;5053341;28;20191;-54
2023/06/18 04:14:06;;;;;;;13.37;10.50;;;;;;;;;;5053537;28;20302;-54
2023/06/18 04:16:32;;;;;;;11.67;10.43;;;;;;;;;;5053091;28;20736;-53
2023/06/18 04:18:58;;;;;;;11.63;10.37;;;;;;;;;;5052821;28;20200;-54
2023/06/18 04:21:24;;;;;;;12.00;10.67;;;;;;;;;;5053004;28;20257;-53
2023/06/18 04:23:50;;;;;;;12.27;11.00;;;;;;;;;;5053128;28;20204;-54
2023/06/18 04:26:16;;;;;;;11.30;10.23;;;;;;;;;;5052873;28;20327;-53
2023/06/18 04:28:42;;;;;;;12.13;10.67;;;;;;;;;;5052919;28;20205;-54
2023/06/18 04:31:09;;;;;;;12.73;11.50;;;;;;;;;;5053046;28;20236;-54
2023/06/18 04:33:36;;;;;;;12.13;10.93;;;;;;;;;;5053073;28;20563;-53
2023/06/18 04:36:02;;;;;;;13.20;11.83;;;;;;;;;;5052812;28;20234;-53
2023/06/18 04:38:28;;;;;;;13.03;11.73;;;;;;;;;;5052849;28;20680;-53
2023/06/18 04:40:54;;;;;;;12.77;11.43;;;;;;;;;;5052712;28;20228;-54
2023/06/18 04:43:20;;;;;;;12.53;11.27;;;;;;;;;;5052776;28;20598;-54
2023/06/18 04:45:46;;;;;;;13.30;12.00;;;;;;;;;;5052533;28;20254;-54
2023/06/18 04:48:14;;;;;;;13.77;11.07;;;;;;;;;;5052727;28;20199;-53
2023/06/18 04:50:40;;;;;;;12.23;10.90;;;;;;;;;;5052554;28;20240;-54
2023/06/18 04:53:06;;;;;;;13.47;11.40;;;;;;;;;;5052775;28;20192;-54
2023/06/18 04:55:32;;;;;;;12.57;11.23;;;;;;;;;;5052770;28;20280;-53
2023/06/18 04:57:58;;;;;;;12.10;10.97;;;;;;;;;;5052382;28;20198;-54
2023/06/18 05:00:24;;;;;;;12.97;11.77;;;;;;;;;;5052484;28;20233;-54
2023/06/18 05:02:50;;;;;;;12.90;11.60;;;;;;;;;;5051007;28;20347;-54
2023/06/18 05:05:17;;;;;;;13.10;11.70;;;;;;;;;;5052225;28;20204;-54
2023/06/18 05:07:44;;;;;;;14.90;13.40;;;;;;;;;;5052144;28;20202;-54
2023/06/18 05:10:10;;;;;;;13.30;11.30;;;;;;;;;;5052382;28;20279;-54
2023/06/18 05:12:37;;;;;;;14.93;13.43;;;;;;;;;;5052307;28;20192;-54
2023/06/18 05:15:04;;;;;;;12.53;11.43;;;;;;;;;;5052201;28;20618;-54
2023/06/18 05:17:30;;;;;;;13.20;11.87;;;;;;;;;;5052023;28;20192;-54
2023/06/18 05:19:56;;;;;;;13.90;12.40;;;;;;;;;;5051878;28;20196;-54
2023/06/18 05:22:23;;;;;;;12.37;11.17;;;;;;;;;;5052158;28;20691;-54
2023/06/18 05:24:49;;;;;;;12.20;11.00;;;;;;;;;;5051831;28;20240;-54
2023/06/18 05:27:15;;;;;;;14.07;12.37;;;;;;;;;;5051934;28;20203;-53
2023/06/18 05:29:41;;;;;;;13.70;12.30;;;;;;;;;;5051122;28;20196;-53
2023/06/18 05:32:09;;;;;;;14.73;13.17;;;;;;;;;;5051919;28;20206;-54
2023/06/18 05:34:35;;;;;;;12.90;11.70;;;;;;;;;;5051858;28;20200;-54
2023/06/18 05:37:01;;;;;;;13.27;12.07;;;;;;;;;;5051589;28;20736;-54
2023/06/18 05:39:28;;;;;;;13.80;12.37;;;;;;;;;;5051606;28;20206;-54
2023/06/18 05:41:55;;;;;;;12.40;11.27;;;;;;;;;;5051413;28;20236;-54
2023/06/18 05:44:20;;;;;;;13.33;12.03;;;;;;;;;;5051752;28;20197;-54
2023/06/18 05:46:46;;;;;;;12.73;11.53;;;;;;;;;;5051408;28;20213;-54
2023/06/18 05:49:12;;;;;;;14.43;12.93;;;;;;;;;;5051389;28;20192;-54
2023/06/18 05:51:38;;;;;;;13.00;11.83;;;;;;;;;;5051269;28;20254;-54
2023/06/18 05:54:05;;;;;;;12.27;11.00;;;;;;;;;;5051711;28;20198;-54
2023/06/18 05:56:32;;;;;;;12.20;10.97;;;;;;;;;;5051390;28;20288;-55
2023/06/18 05:58:58;;;;;;;13.83;12.43;;;;;;;;;;5051264;28;20206;-55
2023/06/18 06:01:24;;;;;;;12.57;11.43;;;;;;;;;;5051404;28;20198;-55
2023/06/18 06:03:50;;;;;;;13.33;11.60;;;;;;;;;;5050959;28;20198;-54
2023/06/18 06:06:16;;;;;;;10.77;9.77;;;;;;;;;;5051277;28;20567;-55
2023/06/18 06:08:42;;;;;;;12.87;11.57;;;;;;;;;;5051066;28;20198;-55
2023/06/18 06:11:08;;;;;;;11.27;10.17;;;;;;;;;;5051432;28;20203;-55
2023/06/18 06:13:36;;;;;;;12.00;10.90;;;;;;;;;;5051196;28;20561;-55
2023/06/18 06:16:02;;;;;;;12.00;10.73;;;;;;;;;;5050846;28;20617;-55
2023/06/18 06:18:28;;;;;;;9.40;8.50;;;;;;;;;;5051104;28;20200;-55
2023/06/18 06:20:54;;;;;;;11.27;10.17;;;;;;;;;;5050846;28;20333;-55
2023/06/18 06:23:20;;;;;;;8.43;7.63;;;;;;;;;;5051066;28;20219;-55
2023/06/18 06:25:46;;;;;;;11.00;9.90;;;;;;;;;;5050746;28;20274;-55
2023/06/18 06:28:12;;;;;;;12.23;11.23;;;;;;;;;;5050965;28;20192;-55
2023/06/18 06:30:39;;;;;;;11.00;10.00;;;;;;;;;;5050829;28;20196;-55
2023/06/18 06:33:05;;;;;;;11.77;10.57;;;;;;;;;;5051154;28;20192;-55
2023/06/18 06:35:31;;;;;;;9.47;8.60;;;;;;;;;;5050971;28;20291;-55
2023/06/18 06:37:57;;;;;;;9.27;8.37;;;;;;;;;;5051046;28;20279;-55
2023/06/18 06:40:24;;;;;;;9.57;8.73;;;;;;;;;;5051334;28;20561;-55
2023/06/18 06:42:50;;;;;;;9.80;7.67;;;;;;;;;;5055009;28;20224;-55
2023/06/18 06:45:16;;;;;;;8.93;8.13;;;;;;;;;;5054863;28;20196;-56
2023/06/18 06:47:43;;;;;;;8.43;7.63;;;;;;;;;;5054678;28;20197;-55
2023/06/18 06:50:09;;;;;;;9.50;8.60;;;;;;;;;;5054875;28;20290;-55
2023/06/18 06:52:35;;;;;;;8.57;7.87;;;;;;;;;;5054963;28;20236;-55
2023/06/18 06:55:01;;;;;;;8.77;8.07;;;;;;;;;;5054677;28;20279;-54
2023/06/18 06:57:27;;;;;;;9.67;8.60;;;;;;;;;;5054645;28;20200;-54
2023/06/18 06:59:53;;;;;;;9.53;7.80;;;;;;;;;;5054538;28;20211;-56
2023/06/18 07:02:19;;;;;;;8.57;7.87;;;;;;;;;;5054653;28;20224;-55
2023/06/18 07:04:48;;;;;;;9.73;8.73;;;;;;;;;;5054671;28;20221;-56
2023/06/18 07:07:14;;;;;;;8.27;7.57;;;;;;;;;;5054670;28;20192;-55
2023/06/18 07:09:40;;;;;;;6.97;6.40;;;;;;;;;;5054450;28;20542;-55
2023/06/18 07:12:07;;;;;;;7.80;7.10;;;;;;;;;;5054580;28;20212;-56
2023/06/18 07:14:33;;;;;;;7.67;7.03;;;;;;;;;;5054385;28;20561;-56
2023/06/18 07:16:59;;;;;;;7.40;6.70;;;;;;;;;;5054284;28;20522;-56
2023/06/18 07:19:25;;;;;;;9.27;8.37;;;;;;;;;;5054324;28;20271;-54
2023/06/18 07:21:53;;;;;;;7.87;7.07;;;;;;;;;;5054218;28;20609;-54
2023/06/18 07:24:20;;;;;;;8.53;7.83;;;;;;;;;;5054136;28;20717;-54
2023/06/18 07:26:46;;;;;;;8.37;7.13;;;;;;;;;;5054127;28;20209;-54
2023/06/18 07:29:12;;;;;;;8.43;7.57;;;;;;;;;;5054421;28;20203;-55
2023/06/18 07:31:38;;;;;;;7.60;6.80;;;;;;;;;;5054002;28;20211;-54
2023/06/18 07:34:04;;;;;;;8.50;6.80;;;;;;;;;;5054252;28;20195;-54
2023/06/18 07:36:30;;;;;;;7.93;7.23;;;;;;;;;;5054199;28;20202;-54
2023/06/18 07:38:57;;;;;;;7.70;7.00;;;;;;;;;;5053794;28;20283;-54
2023/06/18 07:41:23;;;;;;;8.53;7.17;;;;;;;;;;5053939;28;20208;-54
2023/06/18 07:43:49;;;;;;;6.93;6.33;;;;;;;;;;5053815;28;20227;-56
2023/06/18 07:46:15;;;;;;;7.80;6.97;;;;;;;;;;5053761;28;20200;-55
2023/06/18 07:48:41;;;;;;;7.20;6.50;;;;;;;;;;5053700;28;20196;-55
2023/06/18 07:51:07;;;;;;;6.70;6.10;;;;;;;;;;5053755;28;20676;-55
2023/06/18 07:53:33;;;;;;;7.50;6.80;;;;;;;;;;5053131;28;20257;-55
2023/06/18 07:56:01;;;;;;;7.30;6.60;;;;;;;;;;5053455;28;20561;-54
2023/06/18 07:58:27;;;;;;;9.47;7.77;;;;;;;;;;5053601;28;20210;-55
2023/06/18 08:00:53;;;;;;;7.63;7.00;;;;;;;;;;5053492;28;20204;-55
2023/06/18 08:03:19;;;;;;;6.47;5.73;;;;;;;;;;5053560;28;20736;-55
2023/06/18 08:05:45;;;;;;;7.30;6.67;;;;;;;;;;5053272;28;20215;-56
2023/06/18 08:08:11;;;;;;;6.73;6.03;;;;;;;;;;5053365;28;20188;-54
2023/06/18 08:10:37;;;;;;;6.27;5.67;;;;;;;;;;5053407;28;20203;-56
2023/06/18 08:13:05;;;;;;;9.00;6.03;;;;;;;;;;5053444;28;20594;-56
2023/06/18 08:15:31;;;;;;;6.57;5.97;;;;;;;;;;5053240;28;20228;-56
2023/06/18 08:17:57;;;;;;;6.50;5.80;;;;;;;;;;5052993;28;20251;-56
2023/06/18 08:20:23;;;;;;;6.30;5.30;;;;;;;;;;5053245;28;20196;-55
2023/06/18 08:22:49;;;;;;;5.63;4.97;;;;;;;;;;5053065;28;20641;-55
2023/06/18 08:25:16;;;;;;;7.83;6.40;;;;;;;;;;5052984;28;20712;-55
2023/06/18 08:27:42;;;;;;;8.70;6.23;;;;;;;;;;5052976;28;20539;-55
2023/06/18 08:30:09;;;;;;;5.77;5.27;;;;;;;;;;5053081;28;20202;-55
2023/06/18 08:32:38;;;;;;;4.97;4.50;;;;;;;;;;5053083;28;20203;-55
2023/06/18 08:35:04;;;;;;;5.90;5.27;;;;;;;;;;5053026;28;20277;-55
2023/06/18 08:37:30;;;;;;;7.03;5.47;;;;;;;;;;5052865;28;20213;-55
2023/06/18 08:39:56;;;;;;;5.93;5.20;;;;;;;;;;5052706;28;20205;-56
2023/06/18 08:42:23;;;;;;;5.20;4.70;;;;;;;;;;5052749;28;20230;-55
2023/06/18 08:44:50;;;;;;;5.80;5.07;;;;;;;;;;5052583;28;20263;-57
2023/06/18 08:47:20;;;;;;;7.03;5.10;;;;;;;;;;5052385;28;20221;-54
2023/06/18 08:49:47;;;;;;;7.90;4.93;;;;;;;;;;5052228;28;20673;-54
2023/06/18 08:52:15;;;;;;;5.10;4.60;;;;;;;;;;5052541;28;20675;-55
2023/06/18 08:54:42;;;;;;;5.17;4.67;;;;;;;;;;5052358;28;20237;-54
2023/06/18 08:57:18;;;;;;;5.50;5.00;;;;;;;;;;5052494;28;20258;-55
2023/06/18 08:59:44;;;;;;;5.37;4.80;;;;;;;;;;5052370;28;20503;-54
2023/06/18 09:02:15;;;;;;;5.20;4.70;;;;;;;;;;5052170;28;20235;-55
2023/06/18 09:04:43;;;;;;;5.47;4.97;;;;;;;;;;5050896;28;20219;-55
2023/06/18 09:07:09;;;;;;;6.47;4.73;;;;;;;;;;5052211;28;20673;-54
2023/06/18 09:09:36;;;;;;;5.33;4.83;;;;;;;;;;5052420;28;20231;-54
2023/06/18 09:12:03;;;;;;;8.13;4.70;;;;;;;;;;5052187;28;20193;-54
2023/06/18 09:14:29;;;;;;;4.67;4.33;;;;;;;;;;5051990;28;20876;-55
2023/06/18 09:16:57;;;;;;;4.40;4.10;;;;;;;;;;5052095;28;20208;-55
2023/06/18 09:19:23;;;;;;;4.60;4.20;;;;;;;;;;5052197;28;20245;-54
2023/06/18 09:21:51;;;;;;;4.60;4.30;;;;;;;;;;5052007;28;20620;-56
2023/06/18 09:24:19;;;;;;;5.10;4.63;;;;;;;;;;5051884;28;20257;-56
2023/06/18 09:27:01;;;;;;;5.37;4.87;;;;;;;;;;5088643;28;20556;-54
2023/06/18 09:29:28;;;;;;;5.43;4.93;;;;;;;;;;5088634;28;20241;-54
2023/06/18 09:31:54;;;;;;;5.07;4.60;;;;;;;;;;5088470;28;20234;-52
2023/06/18 09:34:20;;;;;;;5.17;4.63;;;;;;;;;;5088748;28;20696;-53
2023/06/18 09:36:47;;;;;;;4.57;4.17;;;;;;;;;;5088440;28;20606;-51
2023/06/18 09:39:17;;;;;;;4.80;4.40;;;;;;;;;;5088505;28;20205;-50
2023/06/18 09:41:44;;;;;;;4.83;4.17;;;;;;;;;;5088347;28;20205;-53
2023/06/18 09:44:12;;;;;;;5.57;5.07;;;;;;;;;;5088442;28;20199;-53
2023/06/18 09:46:38;;;;;;;8.90;5.70;;;;;;;;;;5088319;28;20247;-52
2023/06/18 09:49:04;;;;;;;5.40;4.90;;;;;;;;;;5088471;28;20295;-55
2023/06/18 09:51:30;;;;;;;6.13;4.50;;;;;;;;;;5088267;28;20677;-55
2023/06/18 09:53:56;;;;;;;4.87;4.47;;;;;;;;;;5088077;28;20554;-53
2023/06/18 09:56:22;;;;;;;5.80;4.73;;;;;;;;;;5088230;28;20206;-54
2023/06/18 09:58:49;;;;;;;4.80;4.40;;;;;;;;;;5088027;28;20251;-52
2023/06/18 10:01:17;;;;;;;5.97;4.30;;;;;;;;;;5087973;28;20199;-52
2023/06/18 10:03:43;;;;;;;4.33;3.93;;;;;;;;;;5087945;28;20204;-52
2023/06/18 10:06:16;;;;;;;4.63;3.80;;;;;;;;;;5087694;28;20237;-52
2023/06/18 10:08:43;;;;;;;4.97;4.57;;;;;;;;;;5087785;28;20843;-54
2023/06/18 10:11:10;;;;;;;4.93;4.10;;;;;;;;;;5087890;28;20224;-52
2023/06/18 10:13:36;;;;;;;7.33;3.90;;;;;;;;;;5087999;28;20239;-54
2023/06/18 10:16:04;;;;;;;5.63;3.97;;;;;;;;;;5087598;28;20203;-52
2023/06/18 10:18:32;;;;;;;4.17;3.77;;;;;;;;;;5087791;28;20198;-52
2023/06/18 10:21:00;;;;;;;5.10;4.20;;;;;;;;;;5087610;28;20576;-52
2023/06/18 10:23:26;;;;;;;4.20;3.80;;;;;;;;;;5087583;28;20197;-51
2023/06/18 10:25:52;;;;;;;3.90;3.60;;;;;;;;;;5087253;28;20703;-52
2023/06/18 10:28:18;;;;;;;5.20;3.43;;;;;;;;;;5087649;28;20207;-52
2023/06/18 10:30:45;;;;;;;4.87;4.47;;;;;;;;;;5087385;28;20224;-53
2023/06/18 10:33:12;;;;;;;4.77;4.10;;;;;;;;;;5087406;28;20197;-52
2023/06/18 10:35:40;;;;;;;4.03;3.63;;;;;;;;;;5087536;28;20190;-53
2023/06/18 10:38:06;;;;;;;4.23;3.83;;;;;;;;;;5074786;28;20680;-53
2023/06/18 10:40:37;;;;;;;4.20;3.80;;;;;;;;;;5073922;28;20200;-54
2023/06/18 10:43:04;;;;;;;4.90;3.60;;;;;;;;;;5073767;28;20193;-54
2023/06/18 10:45:30;;;;;;;3.90;3.60;;;;;;;;;;5073585;28;20307;-54
2023/06/18 10:48:11;;;;;;;4.47;4.07;;;;;;;;;;5073482;28;20211;-54
2023/06/18 10:50:37;;;;;;;6.37;3.97;;;;;;;;;;5073823;28;20199;-54
2023/06/18 10:53:21;;;;;;;4.07;3.70;;;;;;;;;;5073575;28;20609;-54
2023/06/18 10:55:57;;;;;;;3.83;3.40;;;;;;;;;;5073461;28;20209;-54
2023/06/18 10:58:31;;;;;;;5.53;4.20;;;;;;;;;;5073618;28;20201;-53
2023/06/18 11:00:57;;;;;;;4.77;4.00;;;;;;;;;;5073230;28;20661;-54
2023/06/18 11:03:23;;;;;;;5.33;4.20;;;;;;;;;;5073440;28;20195;-54
2023/06/18 11:05:51;;;;;;;4.27;3.80;;;;;;;;;;5073345;28;20254;-53
2023/06/18 11:08:26;;;;;;;3.83;3.37;;;;;;;;;;5073163;28;20670;-54
2023/06/18 11:11:00;;;;;;;3.80;3.50;;;;;;;;;;5073531;28;20210;-53
2023/06/18 11:13:31;;;;;;;3.57;3.27;;;;;;;;;;5073184;28;20281;-53
2023/06/18 11:16:02;;;;;;;3.87;3.53;;;;;;;;;;5073106;28;20195;-53
2023/06/18 11:18:30;;;;;;;3.73;3.43;;;;;;;;;;5073420;28;20613;-53
2023/06/18 11:20:56;;;;;;;5.30;3.50;;;;;;;;;;5072928;28;20273;-54
2023/06/18 11:23:24;;;;;;;3.90;3.47;;;;;;;;;;5073165;28;20199;-54
2023/06/18 11:25:50;;;;;;;4.17;3.77;;;;;;;;;;5072767;28;20769;-54
2023/06/18 11:28:17;;;;;;;5.03;3.23;;;;;;;;;;5072986;28;20206;-53
2023/06/18 11:30:47;;;;;;;5.67;3.90;;;;;;;;;;5072688;28;20199;-54
2023/06/18 11:33:13;;;;;;;4.10;3.70;;;;;;;;;;5072774;28;20684;-53
2023/06/18 11:35:40;;;;;;;4.20;3.80;;;;;;;;;;5072652;28;20658;-53
2023/06/18 11:38:06;;;;;;;3.93;3.43;;;;;;;;;;5072882;28;20196;-53
2023/06/18 11:40:33;;;;;;;4.00;3.70;;;;;;;;;;5072563;28;20203;-52
2023/06/18 11:42:59;;;;;;;4.30;3.90;;;;;;;;;;5072527;28;20197;-52
2023/06/18 11:45:25;;;;;;;4.23;3.83;;;;;;;;;;5072190;28;20244;-52
2023/06/18 11:47:52;;;;;;;3.90;3.50;;;;;;;;;;5072358;28;20568;-52
2023/06/18 11:50:19;;;;;;;4.90;3.43;;;;;;;;;;5072038;28;20245;-52
2023/06/18 11:52:46;;;;;;;3.83;3.53;;;;;;;;;;5072399;28;20204;-52
2023/06/18 11:55:12;;;;;;;4.03;3.70;;;;;;;;;;5072393;28;20243;-52
2023/06/18 11:57:40;;;;;;;4.20;3.80;;;;;;;;;;5072550;28;20227;-52
2023/06/18 12:00:08;;;;;;;3.83;3.53;;;;;;;;;;5072257;28;20254;-51
2023/06/18 12:02:38;;;;;;;3.83;3.43;;;;;;;;;;5072398;28;20268;-52
2023/06/18 12:05:05;;;;;;;4.10;3.70;;;;;;;;;;5071693;28;20609;-53
2023/06/18 12:07:31;;;;;;;4.07;3.67;;;;;;;;;;5072180;28;20203;-52
2023/06/18 12:10:01;;;;;;;3.93;3.63;;;;;;;;;;5072006;28;20203;-51
2023/06/18 12:12:29;;;;;;;4.23;3.60;;;;;;;;;;5072074;28;20542;-51
2023/06/18 12:15:00;;;;;;;3.57;3.30;;;;;;;;;;5071707;28;20220;-53
2023/06/18 12:17:30;;;;;;;5.00;3.73;;;;;;;;;;5071801;28;20669;-51
2023/06/18 12:19:59;;;;;;;4.17;3.67;;;;;;;;;;5072066;28;20290;-51
2023/06/18 12:22:26;;;;;;;4.20;3.70;;;;;;;;;;5071787;28;20203;-53
2023/06/18 12:24:52;;;;;;;5.43;3.33;;;;;;;;;;5071705;28;20324;-51
2023/06/18 12:27:18;;;;;;;3.97;3.63;;;;;;;;;;5071919;28;20205;-52
2023/06/18 12:29:45;;;;;;;4.20;3.53;;;;;;;;;;5071649;28;20200;-52
2023/06/18 12:32:13;;;;;;;4.40;4.07;;;;;;;;;;5071611;28;20560;-53
2023/06/18 12:34:40;;;;;;;6.00;4.37;;;;;;;;;;5071586;28;20200;-53
2023/06/18 12:37:07;;;;;;;5.07;4.60;;;;;;;;;;5071662;28;20196;-52
2023/06/18 12:39:34;;;;;;;4.60;4.20;;;;;;;;;;5071664;28;20203;-53
2023/06/18 12:42:01;;;;;;;4.27;3.90;;;;;;;;;;5071441;28;20206;-52
2023/06/18 12:44:27;;;;;;;4.70;4.20;;;;;;;;;;5071401;28;20229;-52
2023/06/18 12:46:56;;;;;;;4.00;3.70;;;;;;;;;;5071338;28;20219;-52
2023/06/18 12:49:24;;;;;;;5.70;4.23;;;;;;;;;;5071598;28;20227;-53
2023/06/18 12:51:53;;;;;;;4.57;4.00;;;;;;;;;;5071424;28;20256;-53
2023/06/18 12:54:21;;;;;;;4.23;3.87;;;;;;;;;;5071381;28;20691;-52
2023/06/18 12:56:50;;;;;;;5.33;4.10;;;;;;;;;;5071193;28;20270;-52
2023/06/18 12:59:18;;;;;;;4.27;3.87;;;;;;;;;;5070998;28;20730;-52
2023/06/18 13:01:44;;;;;;;4.10;3.80;;;;;;;;;;5071140;28;20209;-52
2023/06/18 13:04:11;;;;;;;4.13;3.60;;;;;;;;;;5071193;28;20213;-52
2023/06/18 13:06:38;;;;;;;4.33;3.87;;;;;;;;;;5071261;28;20666;-52
2023/06/18 13:09:05;;;;;;;4.63;4.23;;;;;;;;;;5071223;28;20542;-52
2023/06/18 13:11:32;;;;;;;5.27;4.40;;;;;;;;;;5071167;28;20201;-52
2023/06/18 13:13:58;;;;;;;4.43;4.10;;;;;;;;;;5070922;28;20574;-51
2023/06/18 13:16:24;;;;;;;5.10;4.60;;;;;;;;;;5071050;28;20197;-51
2023/06/18 13:18:50;;;;;;;5.83;4.27;;;;;;;;;;5071123;28;20297;-51
2023/06/18 13:21:16;;;;;;;4.17;3.77;;;;;;;;;;5070873;28;20700;-51
2023/06/18 13:23:43;;;;;;;4.60;4.20;;;;;;;;;;5070874;28;20256;-51
2023/06/18 13:26:09;;;;;;;4.80;4.40;;;;;;;;;;5070655;28;20246;-50
2023/06/18 13:28:36;;;;;;;5.13;3.70;;;;;;;;;;5071171;28;20206;-51
2023/06/18 13:31:02;;;;;;;5.67;4.23;;;;;;;;;;5070925;28;20202;-51
2023/06/18 13:33:28;;;;;;;5.03;4.37;;;;;;;;;;5070986;28;20244;-50
2023/06/18 13:35:54;;;;;;;4.43;4.00;;;;;;;;;;5070841;28;20654;-51
2023/06/18 13:38:20;;;;;;;4.27;3.97;;;;;;;;;;5071090;28;20214;-50
2023/06/18 13:40:47;;;;;;;4.13;3.70;;;;;;;;;;5070738;28;20267;-50
2023/06/18 13:43:13;;;;;;;4.63;4.20;;;;;;;;;;5070740;28;20239;-53
2023/06/18 13:45:39;;;;;;;4.27;3.87;;;;;;;;;;5070691;28;20219;-51
2023/06/18 13:48:06;;;;;;;4.73;4.03;;;;;;;;;;5070897;28;20712;-52
2023/06/18 13:50:32;;;;;;;6.20;4.33;;;;;;;;;;5070724;28;20683;-52
2023/06/18 13:52:58;;;;;;;4.37;3.97;;;;;;;;;;5070677;28;20205;-52
2023/06/18 13:55:25;;;;;;;4.40;4.00;;;;;;;;;;5070814;28;20241;-51
2023/06/18 13:57:52;;;;;;;4.93;4.10;;;;;;;;;;5070780;28;20202;-51
2023/06/18 14:00:18;;;;;;;4.13;3.73;;;;;;;;;;5070953;28;20210;-51
2023/06/18 14:02:45;;;;;;;5.30;4.37;;;;;;;;;;5070756;28;20207;-52
2023/06/18 14:05:11;;;;;;;4.37;3.90;;;;;;;;;;5070439;28;20226;-52
2023/06/18 14:07:37;;;;;;;5.50;3.97;;;;;;;;;;5070894;28;20198;-51
2023/06/18 14:10:04;;;;;;;4.97;4.20;;;;;;;;;;5070633;28;20222;-51
2023/06/18 14:12:30;;;;;;;4.83;4.27;;;;;;;;;;5072307;28;20202;-51
2023/06/18 14:14:57;;;;;;;6.90;4.60;;;;;;;;;;5074256;28;20203;-51
2023/06/18 14:17:25;;;;;;;4.20;3.80;;;;;;;;;;5074376;28;20204;-51
2023/06/18 14:19:52;;;;;;;4.53;4.03;;;;;;;;;;5074431;28;20223;-51
2023/06/18 14:22:18;;;;;;;5.30;4.50;;;;;;;;;;5074385;28;20636;-51
2023/06/18 14:24:44;;;;;;;6.00;4.83;;;;;;;;;;5074076;28;20244;-52
2023/06/18 14:27:10;;;;;;;5.37;4.50;;;;;;;;;;5074028;28;20240;-51
2023/06/18 14:29:36;;;;;;;5.00;4.50;;;;;;;;;;5074095;28;20653;-51
2023/06/18 14:32:04;;;;;;;5.53;4.57;;;;;;;;;;5074002;28;20202;-51
2023/06/18 14:34:30;;;;;;;5.20;4.70;;;;;;;;;;5074030;28;20262;-51
2023/06/18 14:36:56;;;;;;;5.13;4.63;;;;;;;;;;5073857;28;20665;-51